Time;durP1;ratioP1;P1;durP2;ratioP2;P2;SDS_P1;SDS_P2;PMS_P1;PMS_P2;Temp;Humidity;BMP_temperature;BMP_pressure;BME280_temperature;BME280_humidity;BME280_pressure;Samples;Min_cycle;Max_cycle;Signal;HPM_P1;HPM_P2
2021/12/25 00:01:46;;;;;;;10.30;4.57;;;-3270.60;92.00;;;;;;5029672;28;20345;-75
2021/12/25 00:04:12;;;;;;;12.15;5.70;;;-3270.60;92.10;;;;;;5033483;28;20098;-75
2021/12/25 00:06:37;;;;;;;9.13;3.97;;;-3270.50;92.10;;;;;;5035984;28;20045;-75
2021/12/25 00:09:04;;;;;;;6.82;3.22;;;-3270.50;92.30;;;;;;5037301;28;20039;-74
2021/12/25 00:11:30;;;;;;;7.28;3.45;;;-3270.50;92.50;;;;;;5036938;28;20174;-75
2021/12/25 00:13:55;;;;;;;7.05;2.50;;;-3270.50;92.50;;;;;;5038426;28;20454;-75
2021/12/25 00:16:21;;;;;;;6.13;2.78;;;-3270.50;92.60;;;;;;5041544;28;20021;-75
2021/12/25 00:18:46;;;;;;;7.47;2.88;;;-3270.40;92.60;;;;;;5041450;28;20389;-74
2021/12/25 00:21:12;;;;;;;5.63;2.33;;;-3270.40;92.50;;;;;;5042850;28;20044;-75
2021/12/25 00:23:38;;;;;;;12.63;2.45;;;-3270.40;92.60;;;;;;5040531;28;20094;-75
2021/12/25 00:26:23;;;;;;;10.27;2.60;;;-3270.30;92.70;;;;;;5040392;28;20017;-75
2021/12/25 00:28:57;;;;;;;5.85;2.03;;;-3270.40;92.90;;;;;;5036691;28;20131;-75
2021/12/25 00:31:42;;;;;;;6.47;2.78;;;-3270.40;93.00;;;;;;5037205;28;20461;-75
2021/12/25 00:34:10;;;;;;;6.32;2.67;;;-3270.30;93.00;;;;;;5042210;28;20035;-75
2021/12/25 00:36:35;;;;;;;5.70;2.33;;;-3270.30;93.10;;;;;;5036629;28;20465;-77
2021/12/25 00:39:00;;;;;;;9.00;2.50;;;-3270.30;93.10;;;;;;5033489;28;20030;-77
2021/12/25 00:41:26;;;;;;;4.82;1.70;;;-3270.20;93.10;;;;;;5049376;28;20480;-77
2021/12/25 00:43:52;;;;;;;9.63;1.83;;;-3270.30;93.20;;;;;;5030039;28;20068;-76
2021/12/25 00:46:18;;;;;;;5.22;1.83;;;-3270.30;93.20;;;;;;5034968;28;20624;-77
2021/12/25 00:48:45;;;;;;;5.85;1.60;;;-3270.20;93.10;;;;;;5045172;28;20037;-75
2021/12/25 00:51:10;;;;;;;5.10;1.42;;;-3270.30;93.20;;;;;;5041964;28;20510;-77
2021/12/25 00:53:36;;;;;;;2.05;1.25;;;-3270.20;93.20;;;;;;5045667;28;20128;-75
2021/12/25 00:56:01;;;;;;;2.83;1.40;;;-3270.20;93.30;;;;;;5032118;28;20083;-76
2021/12/25 00:58:27;;;;;;;4.03;1.70;;;-3270.10;93.20;;;;;;5039654;28;20017;-76
2021/12/25 01:00:52;;;;;;;3.22;1.35;;;-3270.10;93.10;;;;;;5042660;28;20105;-76
2021/12/25 01:03:18;;;;;;;7.10;1.80;;;-3270.00;93.10;;;;;;5060439;28;20021;-76
2021/12/25 01:05:44;;;;;;;4.47;1.65;;;-3270.00;92.90;;;;;;5039175;28;20045;-76
2021/12/25 01:08:10;;;;;;;6.85;1.80;;;-3269.90;92.90;;;;;;5041943;28;20036;-76
2021/12/25 01:10:37;;;;;;;3.15;1.73;;;-3269.90;93.00;;;;;;5030115;28;20195;-76
2021/12/25 01:13:12;;;;;;;6.80;1.42;;;-3269.90;93.00;;;;;;5036237;28;20021;-75
2021/12/25 01:16:05;;;;;;;6.22;1.40;;;-3269.80;92.90;;;;;;5043359;28;20522;-74
2021/12/25 01:26:46;;;;;;;5.18;1.90;;;-3269.80;93.20;;;;;;5044153;28;20040;-75
2021/12/25 01:32:15;;;;;;;6.93;1.73;;;-3269.80;93.40;;;;;;5044944;28;20477;-75
2021/12/25 01:37:37;;;;;;;4.68;1.75;;;-3269.80;93.40;;;;;;5036588;28;20048;-73
2021/12/25 01:48:02;;;;;;;1.65;1.27;;;-3269.60;92.90;;;;;;5030750;28;20560;-74
2021/12/25 01:50:30;;;;;;;2.30;1.10;;;-3269.60;93.00;;;;;;5032350;28;20016;-74
2021/12/25 01:52:56;;;;;;;4.45;1.38;;;-3269.60;93.00;;;;;;5041056;28;20026;-75
2021/12/25 01:55:25;;;;;;;1.88;1.00;;;-3269.60;93.10;;;;;;5043900;28;20174;-73
2021/12/25 01:57:52;;;;;;;7.88;1.48;;;-3269.40;92.90;;;;;;5031926;28;20033;-73
2021/12/25 02:00:38;;;;;;;6.15;1.40;;;-3269.40;93.00;;;;;;5040677;28;20017;-73
2021/12/25 02:03:06;;;;;;;6.25;1.55;;;-3269.40;93.10;;;;;;5025953;28;20519;-74
2021/12/25 02:05:32;;;;;;;2.35;1.30;;;-3269.50;93.30;;;;;;5036676;28;20029;-74
2021/12/25 02:07:57;;;;;;;3.60;1.50;;;-3269.50;93.40;;;;;;5037880;28;20048;-75
2021/12/25 02:10:23;;;;;;;6.18;1.60;;;-3269.70;93.70;;;;;;5031786;28;20049;-74
2021/12/25 02:12:49;;;;;;;5.00;1.98;;;-3269.60;93.70;;;;;;5034655;28;20036;-74
2021/12/25 02:15:19;;;;;;;4.78;1.77;;;-3269.60;93.80;;;;;;5037746;28;20101;-74
2021/12/25 02:20:36;;;;;;;5.38;2.70;;;-3269.50;93.80;;;;;;5033079;28;20068;-74
2021/12/25 02:23:10;;;;;;;4.75;2.50;;;-3269.50;94.00;;;;;;5035735;28;20024;-73
2021/12/25 02:25:36;;;;;;;3.92;2.22;;;-3269.50;93.90;;;;;;5034654;28;20087;-75
2021/12/25 02:28:04;;;;;;;6.47;2.47;;;-3269.40;93.90;;;;;;5025519;28;20075;-74
2021/12/25 02:30:30;;;;;;;4.90;2.08;;;-3269.40;93.90;;;;;;5038189;28;20175;-74
2021/12/25 02:32:58;;;;;;;6.05;2.45;;;-3269.30;93.80;;;;;;5035716;28;20408;-75
2021/12/25 02:35:25;;;;;;;11.63;2.17;;;-3269.30;93.80;;;;;;5032599;28;20060;-74
2021/12/25 02:37:51;;;;;;;3.75;1.77;;;-3269.30;93.80;;;;;;5027158;28;20112;-75
2021/12/25 02:40:17;;;;;;;3.85;1.60;;;-3269.30;93.80;;;;;;5037310;28;20358;-73
2021/12/25 02:42:43;;;;;;;4.32;2.00;;;-3269.30;93.80;;;;;;5028365;28;20047;-74
2021/12/25 02:45:16;;;;;;;5.28;2.20;;;-3269.30;93.90;;;;;;5037145;28;20400;-76
2021/12/25 02:47:43;;;;;;;4.80;2.20;;;-3269.30;93.90;;;;;;5029532;28;20028;-75
2021/12/25 02:50:10;;;;;;;4.43;1.92;;;-3269.20;93.80;;;;;;5029700;28;20097;-75
2021/12/25 02:52:35;;;;;;;5.40;1.75;;;-3269.20;94.00;;;;;;5038057;28;20445;-74
2021/12/25 02:55:01;;;;;;;4.60;1.75;;;-3269.40;94.30;;;;;;5028313;28;20017;-75
2021/12/25 02:57:26;;;;;;;6.07;1.80;;;-3269.50;94.50;;;;;;5035450;28;20036;-76
2021/12/25 02:59:52;;;;;;;5.45;2.05;;;-3269.70;94.70;;;;;;5037505;28;20029;-74
2021/12/25 03:02:17;;;;;;;4.10;1.65;;;-3269.60;94.60;;;;;;5044690;28;20103;-74
2021/12/25 03:04:47;;;;;;;4.53;1.88;;;-3269.50;94.40;;;;;;5030583;28;20021;-75
2021/12/25 03:07:12;;;;;;;6.10;1.92;;;-3269.30;94.30;;;;;;5037607;28;20049;-74
2021/12/25 03:09:39;;;;;;;5.57;1.90;;;-3269.20;94.30;;;;;;5035539;28;20378;-74
2021/12/25 03:12:07;;;;;;;4.38;2.00;;;-3269.40;94.60;;;;;;5037464;28;20042;-74
2021/12/25 03:14:39;;;;;;;5.28;1.70;;;-3269.30;94.30;;;;;;5040747;28;20104;-74
2021/12/25 03:17:05;;;;;;;5.32;1.52;;;-3269.20;94.30;;;;;;5037006;28;20147;-74
2021/12/25 03:19:32;;;;;;;7.72;1.60;;;-3269.20;94.30;;;;;;5053678;28;20430;-74
2021/12/25 03:22:03;;;;;;;5.18;1.67;;;-3269.10;94.30;;;;;;5036360;28;20048;-74
2021/12/25 03:24:29;;;;;;;6.43;1.90;;;-3269.10;94.30;;;;;;5030600;28;20039;-76
2021/12/25 03:26:57;;;;;;;5.95;1.50;;;-3269.10;94.30;;;;;;5032519;28;20034;-74
2021/12/25 03:29:23;;;;;;;7.75;1.77;;;-3269.00;94.20;;;;;;5034952;28;20500;-74
2021/12/25 03:31:51;;;;;;;2.10;1.42;;;-3269.00;94.10;;;;;;5043622;28;20461;-75
2021/12/25 03:34:17;;;;;;;5.95;1.73;;;-3268.90;94.10;;;;;;5033651;28;20119;-74
2021/12/25 03:36:43;;;;;;;7.50;1.98;;;-3268.90;94.10;;;;;;5040250;28;20107;-74
2021/12/25 03:39:09;;;;;;;6.90;2.00;;;-3269.00;94.40;;;;;;5029650;28;20029;-77
2021/12/25 03:41:36;;;;;;;4.80;1.98;;;-3269.20;94.70;;;;;;5038556;28;20486;-76
2021/12/25 03:44:02;;;;;;;4.70;1.73;;;-3269.10;94.30;;;;;;5042088;28;20068;-76
2021/12/25 03:46:29;;;;;;;3.88;1.77;;;-3269.10;94.40;;;;;;5041735;28;20391;-75
2021/12/25 03:59:36;;;;;;;5.30;1.60;;;-3268.70;94.20;;;;;;5037657;28;20508;-75
2021/12/25 04:02:07;;;;;;;2.30;1.40;;;-3268.70;94.20;;;;;;5031216;28;20033;-75
2021/12/25 04:04:36;;;;;;;4.38;1.27;;;-3268.70;94.20;;;;;;5057981;28;20441;-74
2021/12/25 04:09:31;;;;;;;4.32;1.60;;;-3268.60;94.10;;;;;;5041470;28;20033;-75
2021/12/25 04:12:00;;;;;;;2.80;1.45;;;-3268.70;94.10;;;;;;5043271;28;20139;-74
2021/12/25 04:14:26;;;;;;;2.97;1.42;;;-3268.70;94.20;;;;;;5038023;28;20219;-75
2021/12/25 04:16:52;;;;;;;2.47;1.20;;;-3268.70;94.20;;;;;;5034740;28;20116;-75
2021/12/25 04:19:18;;;;;;;3.03;1.13;;;-3269.00;94.60;;;;;;5036644;28;20036;-75
2021/12/25 04:21:52;;;;;;;2.75;1.25;;;-3268.90;94.30;;;;;;5045633;28;20025;-75
2021/12/25 04:24:18;;;;;;;2.60;1.30;;;-3269.00;94.50;;;;;;5040697;28;20032;-78
2021/12/25 04:26:45;;;;;;;6.53;1.50;;;-3268.80;94.30;;;;;;5041245;28;20117;-74
2021/12/25 05:04:36;;;;;;;5.80;1.35;;;-3268.80;94.30;;;;;;5038564;28;20116;-74
2021/12/25 05:06:56;;;;;;;4.15;1.10;;;-3268.80;94.30;;;;;;5035052;28;20060;-75
2021/12/25 05:09:21;;;;;;;3.15;1.38;;;-3268.70;94.00;;;;;;5038190;28;20132;-74
2021/12/25 05:11:47;;;;;;;3.50;1.27;;;-3268.60;94.00;;;;;;5036877;28;20112;-75
2021/12/25 05:14:12;;;;;;;2.35;1.38;;;-3268.60;94.00;;;;;;5041111;28;20529;-74
2021/12/25 05:16:38;;;;;;;2.92;1.23;;;-3268.50;93.90;;;;;;5040138;28;20114;-74
2021/12/25 05:19:04;;;;;;;2.97;1.10;;;-3268.40;93.90;;;;;;5041892;28;20025;-76
2021/12/25 05:21:30;;;;;;;3.80;1.48;;;-3268.40;93.80;;;;;;5035064;28;20028;-75
2021/12/25 05:23:57;;;;;;;2.88;1.33;;;-3268.40;93.80;;;;;;5040539;28;20045;-75
2021/12/25 05:26:23;;;;;;;3.22;1.25;;;-3268.40;93.80;;;;;;5035642;28;20032;-75
2021/12/25 05:28:57;;;;;;;5.70;1.40;;;-3268.30;93.70;;;;;;5038222;28;20401;-76
2021/12/25 05:31:23;;;;;;;4.78;2.10;;;-3268.30;93.70;;;;;;5044753;28;20378;-76
2021/12/25 05:33:49;;;;;;;3.80;1.73;;;-3268.30;93.70;;;;;;5042802;28;20054;-75
2021/12/25 05:36:15;;;;;;;3.75;1.58;;;-3268.30;93.60;;;;;;5030502;28;20113;-76
2021/12/25 05:38:40;;;;;;;4.18;1.67;;;-3268.30;93.70;;;;;;5036483;28;20188;-79
2021/12/25 05:41:06;;;;;;;4.55;1.30;;;-3268.30;93.60;;;;;;5040650;28;20033;-75
2021/12/25 05:43:31;;;;;;;3.67;1.60;;;-3268.30;93.60;;;;;;5042653;28;20124;-76
2021/12/25 05:45:57;;;;;;;2.80;1.10;;;-3268.30;93.70;;;;;;5031839;28;20079;-78
2021/12/25 05:48:23;;;;;;;5.07;1.48;;;-3268.30;93.70;;;;;;5035093;28;20043;-73
2021/12/25 05:50:48;;;;;;;3.33;1.50;;;-3268.30;93.80;;;;;;5036753;28;20115;-75
2021/12/25 05:53:14;;;;;;;3.38;1.27;;;-3268.20;93.60;;;;;;5041097;28;20044;-76
2021/12/25 05:55:40;;;;;;;2.90;1.33;;;-3268.20;93.60;;;;;;5033689;28;20056;-77
2021/12/25 05:58:07;;;;;;;2.28;1.23;;;-3268.20;93.60;;;;;;5031186;28;20101;-75
2021/12/25 06:00:34;;;;;;;3.08;1.33;;;-3268.20;93.60;;;;;;5032436;28;20047;-77
2021/12/25 06:02:59;;;;;;;4.90;1.10;;;-3268.20;93.60;;;;;;5039615;28;20104;-75
2021/12/25 06:05:25;;;;;;;2.55;1.10;;;-3268.30;93.60;;;;;;5040203;28;20098;-75
2021/12/25 06:07:51;;;;;;;3.80;1.20;;;-3268.20;93.60;;;;;;5040555;28;20400;-75
2021/12/25 06:10:17;;;;;;;3.42;1.38;;;-3268.30;93.60;;;;;;5033626;28;20100;-76
2021/12/25 06:12:44;;;;;;;2.83;1.08;;;-3268.30;93.60;;;;;;5034080;28;20429;-77
2021/12/25 06:15:12;;;;;;;9.00;1.30;;;-3268.20;93.60;;;;;;5041958;28;20032;-76
2021/12/25 06:17:39;;;;;;;2.72;1.27;;;-3268.20;93.50;;;;;;5034862;28;20032;-76
2021/12/25 06:20:06;;;;;;;3.33;1.08;;;-3268.20;93.40;;;;;;5036481;28;20033;-75
2021/12/25 06:22:32;;;;;;;3.17;1.42;;;-3268.10;93.40;;;;;;5030886;28;20032;-76
2021/12/25 06:24:57;;;;;;;3.78;1.10;;;-3268.10;93.40;;;;;;5052076;28;20044;-76
2021/12/25 06:27:23;;;;;;;4.07;1.27;;;-3268.00;93.40;;;;;;5034901;28;20051;-75
2021/12/25 06:29:50;;;;;;;3.67;1.40;;;-3268.00;93.40;;;;;;5031507;28;20055;-74
2021/12/25 06:32:16;;;;;;;3.95;1.30;;;-3268.00;93.40;;;;;;5026004;28;20342;-75
2021/12/25 06:34:42;;;;;;;3.70;1.45;;;-3268.00;93.40;;;;;;5043760;28;20074;-76
2021/12/25 06:37:08;;;;;;;6.03;1.50;;;-3268.00;93.30;;;;;;5034328;28;20033;-74
2021/12/25 06:39:34;;;;;;;2.10;1.30;;;-3268.00;93.40;;;;;;5041865;28;20033;-75
2021/12/25 06:42:00;;;;;;;2.55;1.15;;;-3267.90;93.30;;;;;;5041583;28;20033;-75
2021/12/25 06:44:27;;;;;;;4.63;1.65;;;-3267.90;93.30;;;;;;5039640;28;20047;-76
2021/12/25 06:46:53;;;;;;;4.40;1.73;;;-3267.90;93.40;;;;;;5035953;28;20441;-74
2021/12/25 06:49:20;;;;;;;6.90;2.13;;;-3267.80;93.30;;;;;;5042553;28;20445;-75
2021/12/25 06:51:46;;;;;;;6.15;2.25;;;-3267.80;93.30;;;;;;5028824;28;20021;-75
2021/12/25 06:54:12;;;;;;;5.47;1.85;;;-3267.80;93.30;;;;;;5032309;28;20025;-77
2021/12/25 06:56:38;;;;;;;2.95;1.40;;;-3267.90;93.40;;;;;;5029380;28;20044;-79
2021/12/25 06:59:03;;;;;;;4.05;1.70;;;-3268.00;93.50;;;;;;5028854;28;20087;-79
2021/12/25 07:01:29;;;;;;;5.93;2.22;;;-3268.00;93.50;;;;;;5036896;28;20295;-76
2021/12/25 07:03:54;;;;;;;5.13;2.40;;;-3268.00;93.50;;;;;;5036151;28;20028;-75
2021/12/25 07:06:21;;;;;;;4.07;1.48;;;-3268.00;93.50;;;;;;5038381;28;20052;-78
2021/12/25 07:08:47;;;;;;;4.05;1.52;;;-3268.00;93.60;;;;;;5031537;28;20558;-75
2021/12/25 07:11:13;;;;;;;5.05;1.42;;;-3268.10;93.60;;;;;;5036696;28;20459;-76
2021/12/25 07:13:43;;;;;;;3.17;1.70;;;-3268.10;93.60;;;;;;5041248;28;20084;-76
2021/12/25 07:16:08;;;;;;;6.30;2.13;;;-3268.00;93.60;;;;;;5042388;28;20111;-75
2021/12/25 07:18:34;;;;;;;4.65;1.88;;;-3268.10;93.60;;;;;;5036059;28;20109;-77
2021/12/25 07:20:59;;;;;;;3.13;1.65;;;-3268.20;93.70;;;;;;5038356;28;20029;-76
2021/12/25 07:23:25;;;;;;;4.50;1.90;;;-3268.20;93.60;;;;;;5043313;28;20105;-75
2021/12/25 07:25:50;;;;;;;3.58;1.75;;;-3268.20;93.70;;;;;;5038013;28;20026;-78
2021/12/25 07:28:16;;;;;;;6.65;2.33;;;-3268.20;93.70;;;;;;5052693;28;20071;-76
2021/12/25 07:30:41;;;;;;;5.60;2.30;;;-3268.30;93.70;;;;;;5041614;28;20160;-75
2021/12/25 07:33:07;;;;;;;4.70;2.30;;;-3268.20;93.60;;;;;;5038717;28;20392;-75
2021/12/25 07:35:32;;;;;;;4.15;2.05;;;-3268.20;93.60;;;;;;5035783;28;20021;-74
2021/12/25 07:37:58;;;;;;;6.38;2.78;;;-3268.20;93.50;;;;;;5042124;28;20450;-77
2021/12/25 07:40:23;;;;;;;5.35;2.67;;;-3268.10;93.40;;;;;;5058904;28;20452;-77
2021/12/25 07:42:49;;;;;;;5.05;2.35;;;-3268.10;93.40;;;;;;5057062;28;20025;-76
2021/12/25 07:45:15;;;;;;;7.18;3.60;;;-3268.10;93.30;;;;;;5044293;28;20258;-77
2021/12/25 07:47:46;;;;;;;6.47;2.55;;;-3268.10;93.30;;;;;;5046119;28;20025;-76
2021/12/25 07:50:13;;;;;;;7.45;2.58;;;-3268.10;93.40;;;;;;5045433;28;20025;-73
2021/12/25 07:52:40;;;;;;;6.85;2.90;;;-3268.20;93.50;;;;;;5063918;28;20460;-75
2021/12/25 07:55:06;;;;;;;6.60;3.15;;;-3268.30;93.60;;;;;;5040803;28;20045;-76
2021/12/25 07:57:32;;;;;;;6.95;3.25;;;-3268.30;93.40;;;;;;5043668;28;20207;-75
2021/12/25 07:59:57;;;;;;;7.40;3.30;;;-3268.20;93.40;;;;;;5041643;28;20543;-78
2021/12/25 08:02:23;;;;;;;6.40;3.25;;;-3268.20;93.30;;;;;;5041386;28;20444;-78
2021/12/25 08:04:48;;;;;;;5.28;3.20;;;-3268.10;93.20;;;;;;5048124;28;20025;-74
2021/12/25 08:07:14;;;;;;;10.10;3.47;;;-3268.10;93.30;;;;;;5041696;28;20035;-79
2021/12/25 08:09:42;;;;;;;7.25;3.42;;;-3268.10;93.20;;;;;;5035483;28;20107;-76
2021/12/25 08:12:07;;;;;;;9.75;3.92;;;-3268.10;93.20;;;;;;5038872;28;20076;-75
2021/12/25 08:14:33;;;;;;;6.53;3.58;;;-3268.20;93.20;;;;;;5033580;28;20544;-76
2021/12/25 08:17:01;;;;;;;6.57;3.65;;;-3268.20;93.20;;;;;;5032405;28;20030;-75
2021/12/25 08:19:27;;;;;;;6.93;3.40;;;-3268.20;93.20;;;;;;5042215;28;20037;-77
2021/12/25 08:21:53;;;;;;;13.88;3.13;;;-3268.20;93.20;;;;;;5034011;28;20114;-77
2021/12/25 08:24:19;;;;;;;9.10;3.70;;;-3268.30;93.30;;;;;;5042571;28;20473;-75
2021/12/25 08:26:45;;;;;;;9.68;3.25;;;-3268.30;93.30;;;;;;5034511;28;20166;-75
2021/12/25 08:29:12;;;;;;;8.77;3.80;;;-3268.40;93.40;;;;;;5041596;28;20032;-77
2021/12/25 08:31:40;;;;;;;9.45;3.45;;;-3268.50;93.50;;;;;;5029032;28;20109;-75
2021/12/25 08:34:06;;;;;;;7.15;3.30;;;-3268.70;93.60;;;;;;5039012;28;20120;-77
2021/12/25 08:36:33;;;;;;;7.80;3.30;;;-3268.70;93.60;;;;;;5046993;28;20134;-77
2021/12/25 08:38:59;;;;;;;6.63;3.60;;;-3268.70;93.50;;;;;;5033517;28;20078;-76
2021/12/25 08:41:28;;;;;;;10.23;4.95;;;-3268.80;93.50;;;;;;5034779;28;20025;-77
2021/12/25 08:43:58;;;;;;;11.23;4.30;;;-3268.80;93.60;;;;;;5032171;28;20100;-77
2021/12/25 08:46:42;;;;;;;7.68;4.00;;;-3268.80;93.60;;;;;;5038740;28;20025;-75
2021/12/25 08:49:14;;;;;;;9.68;4.55;;;-3268.90;93.60;;;;;;5045147;28;20159;-76
2021/12/25 08:51:40;;;;;;;9.07;4.97;;;-3269.00;93.60;;;;;;5030699;28;20098;-75
2021/12/25 08:54:05;;;;;;;15.48;6.25;;;-3269.10;93.80;;;;;;5034417;28;20034;-75
2021/12/25 08:56:31;;;;;;;15.38;5.63;;;-3269.20;93.90;;;;;;5032917;28;20052;-77
2021/12/25 08:58:58;;;;;;;9.35;5.10;;;-3269.20;93.80;;;;;;5044927;28;20115;-75
2021/12/25 09:01:24;;;;;;;10.45;5.55;;;-3269.20;93.80;;;;;;5042652;28;20025;-74
2021/12/25 09:03:49;;;;;;;10.07;4.65;;;-3269.30;93.90;;;;;;5041944;28;20119;-75
2021/12/25 09:06:15;;;;;;;7.97;3.92;;;-3269.40;93.90;;;;;;5034815;28;20048;-77
2021/12/25 09:08:40;;;;;;;6.47;3.83;;;-3269.50;93.90;;;;;;5055881;28;20040;-75
2021/12/25 09:11:06;;;;;;;9.88;4.45;;;-3269.50;93.80;;;;;;5036260;28;20457;-76
2021/12/25 09:13:33;;;;;;;7.88;4.40;;;-3269.40;93.80;;;;;;5046352;28;20513;-75
2021/12/25 09:15:58;;;;;;;9.52;4.68;;;-3269.50;93.80;;;;;;5061561;28;20108;-76
2021/12/25 09:18:24;;;;;;;8.77;3.15;;;-3269.80;94.30;;;;;;5032513;28;20208;-75
2021/12/25 09:20:50;;;;;;;9.18;3.97;;;-3269.90;94.30;;;;;;5037584;28;20021;-77
2021/12/25 09:23:15;;;;;;;7.75;4.18;;;-3270.00;94.00;;;;;;5029491;28;20048;-75
2021/12/25 09:25:41;;;;;;;5.82;3.75;;;-3270.10;94.00;;;;;;5040000;28;20102;-77
2021/12/25 09:28:06;;;;;;;8.52;4.45;;;-3270.20;94.00;;;;;;5044782;28;20181;-76
2021/12/25 09:30:32;;;;;;;12.70;3.88;;;-3270.30;93.80;;;;;;5035444;28;20025;-78
2021/12/25 09:32:57;;;;;;;9.13;4.30;;;-3270.30;93.70;;;;;;5046254;28;20123;-78
2021/12/25 09:35:24;;;;;;;10.32;4.80;;;-3270.40;93.70;;;;;;5049406;28;20056;-76
2021/12/25 09:37:49;;;;;;;7.78;4.72;;;-3270.50;93.60;;;;;;5036705;28;20375;-75
2021/12/25 09:40:15;;;;;;;12.63;5.38;;;-3270.60;93.40;;;;;;5036660;28;20041;-74
2021/12/25 09:42:42;;;;;;;9.40;5.15;;;-3270.70;93.30;;;;;;5033718;28;20037;-75
2021/12/25 09:45:09;;;;;;;11.63;6.10;;;-3270.80;93.20;;;;;;5036849;28;20033;-76
2021/12/25 09:47:35;;;;;;;10.70;5.25;;;-3271.00;93.20;;;;;;5038727;28;20105;-75
2021/12/25 09:50:01;;;;;;;12.85;5.53;;;-3271.10;93.20;;;;;;5035576;28;20112;-74
2021/12/25 09:52:29;;;;;;;11.82;5.72;;;-3271.20;93.40;;;;;;5035298;28;20116;-75
2021/12/25 09:54:56;;;;;;;9.98;5.50;;;-3271.40;93.60;;;;;;5042230;28;20032;-75
2021/12/25 09:57:22;;;;;;;11.40;5.38;;;-3271.60;93.30;;;;;;5036226;28;20018;-74
2021/12/25 09:59:48;;;;;;;9.77;4.85;;;-3271.90;93.10;;;;;;5048139;28;20033;-74
2021/12/25 10:02:15;;;;;;;9.45;4.68;;;-3272.00;92.60;;;;;;5031377;28;20037;-74
2021/12/25 10:04:54;;;;;;;13.30;4.05;;;-3272.20;92.20;;;;;;5038874;28;20079;-74
2021/12/25 10:07:23;;;;;;;7.57;3.88;;;-3272.50;92.20;;;;;;5026371;28;20083;-76
2021/12/25 10:10:14;;;;;;;8.90;4.32;;;-3272.60;91.80;;;;;;5041329;28;20043;-74
2021/12/25 10:12:43;;;;;;;;;;;-3273.00;92.00;;;;;;5059007;28;20025;-75
2021/12/25 10:15:12;;;;;;;9.85;3.60;;;-3273.10;91.60;;;;;;5037517;28;19991;-75
2021/12/25 10:17:57;;;;;;;9.30;3.50;;;-3273.30;91.50;;;;;;5027127;28;20493;-75
2021/12/25 10:20:41;;;;;;;9.48;3.58;;;-3273.40;90.70;;;;;;5025706;28;20032;-75
2021/12/25 10:23:12;;;;;;;7.13;3.50;;;-3273.50;90.30;;;;;;5042545;28;20043;-76
2021/12/25 10:25:49;;;;;;;7.38;3.25;;;-3273.40;88.80;;;;;;5038199;28;20037;-75
2021/12/25 10:28:19;;;;;;;8.07;2.97;;;-3273.50;89.00;;;;;;5040382;28;20028;-76
2021/12/25 10:30:54;;;;;;;7.63;3.33;;;-3273.50;88.90;;;;;;5040803;28;20025;-75
2021/12/25 10:33:34;;;;;;;10.02;3.13;;;-3273.50;89.10;;;;;;5047279;28;20607;-74
2021/12/25 10:36:10;;;;;;;14.95;3.65;;;-3273.30;88.80;;;;;;5041758;28;20424;-75
2021/12/25 10:38:36;;;;;;;7.15;3.03;;;-3273.40;88.90;;;;;;5039559;28;20413;-75
2021/12/25 10:41:13;;;;;;;9.00;3.50;;;-3273.40;88.80;;;;;;5032231;28;20033;-76
2021/12/25 10:43:41;;;;;;;25.42;9.80;;;-3273.40;88.60;;;;;;5029863;28;20052;-75
2021/12/25 10:46:07;;;;;;;12.27;4.70;;;-3273.50;88.50;;;;;;5036101;28;20040;-75
2021/12/25 10:48:33;;;;;;;10.30;3.80;;;-3273.60;88.40;;;;;;5033818;28;20090;-75
2021/12/25 10:50:59;;;;;;;14.45;5.65;;;-3273.70;88.30;;;;;;5030543;28;20120;-76
2021/12/25 10:53:29;;;;;;;12.85;4.47;;;-3273.70;89.00;;;;;;5049661;28;20062;-75
2021/12/25 10:56:13;;;;;;;9.52;3.92;;;-3273.80;89.50;;;;;;5033866;28;20471;-77
2021/12/25 10:58:40;;;;;;;7.20;3.25;;;-3274.00;88.80;;;;;;5054917;28;20119;-76
2021/12/25 11:01:10;;;;;;;8.00;3.17;;;-3274.10;88.30;;;;;;5033014;28;20136;-75
2021/12/25 11:03:38;;;;;;;10.70;3.65;;;-3274.10;88.70;;;;;;5030824;28;20070;-76
2021/12/25 11:06:10;;;;;;;10.55;3.38;;;-3274.20;88.00;;;;;;5032769;28;20025;-74
2021/12/25 11:08:37;;;;;;;7.03;2.58;;;-3274.20;87.70;;;;;;5034640;28;20060;-75
2021/12/25 11:11:05;;;;;;;6.47;2.83;;;-3274.30;87.30;;;;;;5036546;28;20086;-73
2021/12/25 11:13:38;;;;;;;5.50;2.50;;;-3274.30;86.80;;;;;;5029712;28;20041;-75
2021/12/25 11:16:30;;;;;;;6.72;2.70;;;-3274.30;85.10;;;;;;5035809;28;20048;-76
2021/12/25 11:19:08;;;;;;;4.90;2.13;;;-3274.50;86.30;;;;;;5030668;28;20067;-75
2021/12/25 11:21:44;;;;;;;8.45;2.30;;;-3274.50;86.50;;;;;;5036499;28;20025;-78
2021/12/25 11:24:19;;;;;;;5.90;2.40;;;-3274.60;85.60;;;;;;5051451;28;20040;-76
2021/12/25 11:26:49;;;;;;;8.30;2.90;;;-3274.70;85.60;;;;;;5030095;28;20091;-76
2021/12/25 11:29:17;;;;;;;14.55;2.63;;;-3274.90;85.90;;;;;;5029030;28;20445;-74
2021/12/25 11:31:44;;;;;;;11.02;2.88;;;-3274.90;85.10;;;;;;5038342;28;20057;-74
2021/12/25 11:34:10;;;;;;;12.00;2.30;;;-3275.10;85.10;;;;;;5037341;28;20036;-74
2021/12/25 11:36:42;;;;;;;6.32;2.30;;;-3275.00;83.90;;;;;;5040605;28;20029;-74
2021/12/25 11:39:08;;;;;;;6.88;2.38;;;-3275.00;83.60;;;;;;5037228;28;20056;-74
2021/12/25 11:41:35;;;;;;;5.22;2.22;;;-3275.10;83.70;;;;;;5034877;28;20049;-74
2021/12/25 11:44:06;;;;;;;9.65;1.52;;;-3275.30;83.90;;;;;;5032464;28;20022;-75
2021/12/25 11:46:41;;;;;;;12.45;3.60;;;-3275.30;83.40;;;;;;5032655;28;20022;-76
2021/12/25 11:49:14;;;;;;;4.53;1.30;;;-3275.60;84.00;;;;;;5030643;28;20405;-76
2021/12/25 11:51:43;;;;;;;14.38;1.65;;;-3275.50;82.80;;;;;;5034189;28;20123;-77
2021/12/25 11:54:44;;;;;;;4.95;1.50;;;-3275.50;81.70;;;;;;5038311;28;20033;-75
2021/12/25 11:59:49;;;;;;;3.72;1.40;;;-3275.70;82.50;;;;;;5037238;28;20173;-77
2021/12/25 12:02:38;;;;;;;4.47;1.75;;;-3275.80;83.20;;;;;;5041411;28;20067;-75
2021/12/25 12:05:24;;;;;;;5.97;1.67;;;-3275.90;82.60;;;;;;5030960;28;20048;-76
2021/12/25 12:08:22;;;;;;;4.25;1.38;;;-3276.00;83.00;;;;;;5032287;28;20501;-77
2021/12/25 12:10:57;;;;;;;4.97;1.30;;;-3275.90;81.70;;;;;;5013802;28;20051;-77
2021/12/25 12:13:30;;;;;;;4.63;1.52;;;-3275.80;81.50;;;;;;5031459;28;20048;-77
2021/12/25 12:16:00;;;;;;;2.38;1.08;;;-3275.90;82.50;;;;;;5052704;28;20033;-76
2021/12/25 12:18:31;;;;;;;4.50;1.38;;;-3275.80;81.20;;;;;;5046796;28;20025;-78
2021/12/25 12:21:10;;;;;;;;;;;-3275.80;81.20;;;;;;5038857;28;20025;-76
2021/12/25 12:24:07;;;;;;;4.20;1.52;;;-3275.80;81.30;;;;;;5034001;28;19967;-78
2021/12/25 12:26:45;;;;;;;7.10;1.80;;;-3275.80;81.60;;;;;;5033278;28;20338;-77
2021/12/25 12:29:11;;;;;;;5.18;2.22;;;-3276.10;83.30;;;;;;5031502;28;20103;-76
2021/12/25 12:31:44;;;;;;;6.68;3.33;;;-3276.00;80.70;;;;;;5041516;28;20116;-77
2021/12/25 12:34:38;;;;;;;5.75;2.15;;;-3275.70;79.90;;;;;;5035850;28;20055;-77
2021/12/25 12:37:18;;;;;;;6.13;1.67;;;-3275.60;80.30;;;;;;5029587;28;20481;-77
2021/12/25 12:39:53;;;;;;;4.22;1.70;;;-3275.40;81.20;;;;;;5037703;28;20238;-77
2021/12/25 12:42:20;;;;;;;3.47;1.30;;;-3275.30;82.70;;;;;;5033134;28;20025;-77
2021/12/25 12:44:49;;;;;;;6.05;1.85;;;-3275.20;82.00;;;;;;5032911;28;20105;-77
2021/12/25 12:47:18;;;;;;;4.82;1.40;;;-3275.10;83.90;;;;;;5038329;28;20228;-75
2021/12/25 12:49:49;;;;;;;4.88;1.30;;;-3275.00;83.90;;;;;;5028003;28;20021;-77
2021/12/25 12:52:19;;;;;;;;;;;-3275.00;84.90;;;;;;5044848;28;20080;-76
2021/12/25 12:55:04;;;;;;;6.50;1.20;;;-3274.90;84.50;;;;;;5038610;28;19921;-75
2021/12/25 12:57:45;;;;;;;5.55;1.35;;;-3274.80;84.70;;;;;;5034905;28;20115;-75
2021/12/25 13:00:19;;;;;;;4.50;1.73;;;-3274.90;85.10;;;;;;5056243;28;20269;-78
2021/12/25 13:02:54;;;;;;;7.40;1.30;;;-3274.80;85.20;;;;;;5032142;28;20353;-76
2021/12/25 13:05:40;;;;;;;4.63;1.17;;;-3274.70;84.40;;;;;;5039150;28;20465;-76
2021/12/25 13:08:12;;;;;;;5.28;1.10;;;-3274.60;84.20;;;;;;5029596;28;20165;-76
2021/12/25 13:10:43;;;;;;;5.00;1.13;;;-3274.60;85.70;;;;;;5038629;28;20091;-76
2021/12/25 13:13:16;;;;;;;4.63;0.90;;;-3274.60;86.00;;;;;;5042570;28;20591;-76
2021/12/25 13:15:44;;;;;;;3.42;1.10;;;-3274.50;85.70;;;;;;5036005;28;20066;-77
2021/12/25 13:18:11;;;;;;;4.00;1.08;;;-3274.50;85.30;;;;;;5042698;28;20025;-75
2021/12/25 13:20:41;;;;;;;4.28;1.30;;;-3274.50;85.60;;;;;;5041835;28;20203;-76
2021/12/25 13:23:21;;;;;;;1.65;1.05;;;-3274.50;85.90;;;;;;5034567;28;20476;-75
2021/12/25 13:25:57;;;;;;;6.15;1.38;;;-3274.40;85.80;;;;;;5042198;28;20143;-75
2021/12/25 13:28:27;;;;;;;5.05;1.20;;;-3274.40;86.80;;;;;;5027794;28;20040;-76
2021/12/25 13:31:13;;;;;;;2.43;1.07;;;-3274.30;86.90;;;;;;5041149;28;20522;-76
2021/12/25 13:33:46;;;;;;;3.90;1.10;;;-3274.30;86.70;;;;;;5034891;28;20345;-76
2021/12/25 13:36:20;;;;;;;4.68;1.20;;;-3274.20;86.50;;;;;;5031102;28;20084;-75
2021/12/25 13:38:47;;;;;;;5.80;1.30;;;-3274.20;86.40;;;;;;5036245;28;20468;-75
2021/12/25 13:41:15;;;;;;;5.60;1.40;;;-3274.20;86.80;;;;;;5026047;28;20033;-78